sensor_id;sensor_type;location;lat;lon;timestamp;pressure;altitude;pressure_sealevel;temperature;humidity
40850;BME280;26571;41.610;25.380;2023-06-19T00:00:53;98114.22;;;19.85;87.34
40850;BME280;26571;41.610;25.380;2023-06-19T00:03:19;98001.13;;;18.97;88.04
40850;BME280;26571;41.610;25.380;2023-06-19T00:05:45;98115.84;;;19.62;88.66
40850;BME280;26571;41.610;25.380;2023-06-19T00:08:10;98117.19;;;19.53;89.19
40850;BME280;26571;41.610;25.380;2023-06-19T00:10:35;98120.34;;;19.50;89.26
40850;BME280;26571;41.610;25.380;2023-06-19T00:13:01;98083.75;;;19.16;89.44
40850;BME280;26571;41.610;25.380;2023-06-19T00:15:26;98119.97;;;19.35;90.39
40850;BME280;26571;41.610;25.380;2023-06-19T00:17:55;98118.13;;;19.35;90.23
40850;BME280;26571;41.610;25.380;2023-06-19T00:20:20;98114.66;;;19.35;90.02
40850;BME280;26571;41.610;25.380;2023-06-19T00:22:46;98118.34;;;19.34;89.90
40850;BME280;26571;41.610;25.380;2023-06-19T00:25:17;98114.03;;;19.33;89.84
40850;BME280;26571;41.610;25.380;2023-06-19T00:27:42;98114.75;;;19.40;89.51
40850;BME280;26571;41.610;25.380;2023-06-19T00:30:08;98116.16;;;19.43;89.43
40850;BME280;26571;41.610;25.380;2023-06-19T00:32:33;98132.41;;;19.29;88.89
40850;BME280;26571;41.610;25.380;2023-06-19T00:35:12;98110.69;;;19.26;90.01
40850;BME280;26571;41.610;25.380;2023-06-19T00:37:37;98125.41;;;19.28;90.42
40850;BME280;26571;41.610;25.380;2023-06-19T00:40:03;98092.81;;;19.15;90.75
40850;BME280;26571;41.610;25.380;2023-06-19T00:42:28;98121.81;;;19.23;91.85
40850;BME280;26571;41.610;25.380;2023-06-19T00:44:54;98108.09;;;19.07;93.09
40850;BME280;26571;41.610;25.380;2023-06-19T00:47:19;98115.50;;;19.05;93.38
40850;BME280;26571;41.610;25.380;2023-06-19T00:49:45;98123.97;;;19.02;93.85
40850;BME280;26571;41.610;25.380;2023-06-19T00:52:10;98117.31;;;18.93;94.58
40850;BME280;26571;41.610;25.380;2023-06-19T00:54:36;98120.00;;;18.93;94.87
40850;BME280;26571;41.610;25.380;2023-06-19T00:57:02;98118.78;;;18.77;95.50
40850;BME280;26571;41.610;25.380;2023-06-19T00:59:28;98116.63;;;18.68;95.94
40850;BME280;26571;41.610;25.380;2023-06-19T01:01:54;98115.69;;;18.62;96.60
40850;BME280;26571;41.610;25.380;2023-06-19T01:04:21;98119.59;;;18.59;96.97
40850;BME280;26571;41.610;25.380;2023-06-19T01:06:56;98130.50;;;18.58;97.42
40850;BME280;26571;41.610;25.380;2023-06-19T01:09:33;98121.69;;;18.57;97.16
40850;BME280;26571;41.610;25.380;2023-06-19T01:12:08;98117.41;;;18.38;98.19
40850;BME280;26571;41.610;25.380;2023-06-19T01:14:39;98131.34;;;18.40;98.69
40850;BME280;26571;41.610;25.380;2023-06-19T01:17:06;98112.09;;;18.20;99.30
40850;BME280;26571;41.610;25.380;2023-06-19T01:19:31;98149.53;;;18.43;98.13
40850;BME280;26571;41.610;25.380;2023-06-19T01:22:02;98136.81;;;18.45;97.65
40850;BME280;26571;41.610;25.380;2023-06-19T01:24:28;98115.28;;;18.28;96.96
40850;BME280;26571;41.610;25.380;2023-06-19T01:26:53;98136.34;;;18.48;96.11
40850;BME280;26571;41.610;25.380;2023-06-19T01:29:18;98139.63;;;18.50;95.88
40850;BME280;26571;41.610;25.380;2023-06-19T01:32:04;98140.06;;;18.47;94.81
40850;BME280;26571;41.610;25.380;2023-06-19T01:34:33;98138.44;;;18.46;94.36
40850;BME280;26571;41.610;25.380;2023-06-19T01:37:01;98141.41;;;18.38;95.26
40850;BME280;26571;41.610;25.380;2023-06-19T01:39:27;98136.06;;;18.38;96.20
40850;BME280;26571;41.610;25.380;2023-06-19T01:41:54;98133.41;;;18.20;96.19
40850;BME280;26571;41.610;25.380;2023-06-19T01:44:20;98128.84;;;18.27;96.73
40850;BME280;26571;41.610;25.380;2023-06-19T01:46:52;98141.56;;;18.25;96.75
40850;BME280;26571;41.610;25.380;2023-06-19T01:49:18;98141.13;;;18.28;95.75
40850;BME280;26571;41.610;25.380;2023-06-19T01:51:43;98144.06;;;18.20;96.06
40850;BME280;26571;41.610;25.380;2023-06-19T01:54:09;98131.06;;;18.12;96.45
40850;BME280;26571;41.610;25.380;2023-06-19T01:56:35;98138.59;;;18.15;97.10
40850;BME280;26571;41.610;25.380;2023-06-19T01:59:00;98138.44;;;18.09;96.93
40850;BME280;26571;41.610;25.380;2023-06-19T02:01:26;98150.28;;;18.14;96.66
40850;BME280;26571;41.610;25.380;2023-06-19T02:03:51;98145.84;;;18.07;97.09
40850;BME280;26571;41.610;25.380;2023-06-19T02:06:17;98127.63;;;18.04;96.91
40850;BME280;26571;41.610;25.380;2023-06-19T02:08:42;98147.91;;;18.24;96.32
40850;BME280;26571;41.610;25.380;2023-06-19T02:11:08;98152.22;;;18.25;96.62
40850;BME280;26571;41.610;25.380;2023-06-19T02:13:33;98146.44;;;18.28;96.86
40850;BME280;26571;41.610;25.380;2023-06-19T02:15:59;98155.06;;;18.30;96.93
40850;BME280;26571;41.610;25.380;2023-06-19T02:18:24;98092.88;;;17.99;96.44
40850;BME280;26571;41.610;25.380;2023-06-19T02:20:49;98166.66;;;18.36;95.98
40850;BME280;26571;41.610;25.380;2023-06-19T02:23:15;98036.03;;;17.50;95.91
40850;BME280;26571;41.610;25.380;2023-06-19T02:25:40;98152.81;;;18.08;96.14
40850;BME280;26571;41.610;25.380;2023-06-19T02:28:06;98156.69;;;18.31;96.00
40850;BME280;26571;41.610;25.380;2023-06-19T02:30:31;98171.47;;;18.27;96.28
40850;BME280;26571;41.610;25.380;2023-06-19T02:32:56;98156.38;;;18.21;96.79
40850;BME280;26571;41.610;25.380;2023-06-19T02:35:22;98169.84;;;18.26;97.37
40850;BME280;26571;41.610;25.380;2023-06-19T02:37:47;98160.94;;;18.14;98.02
40850;BME280;26571;41.610;25.380;2023-06-19T02:40:13;98185.59;;;18.09;98.33
40850;BME280;26571;41.610;25.380;2023-06-19T02:42:39;98171.53;;;18.02;98.44
40850;BME280;26571;41.610;25.380;2023-06-19T02:45:05;98168.94;;;17.95;98.93
40850;BME280;26571;41.610;25.380;2023-06-19T02:47:31;98164.13;;;17.86;99.34
40850;BME280;26571;41.610;25.380;2023-06-19T02:50:00;98174.28;;;17.95;98.43
40850;BME280;26571;41.610;25.380;2023-06-19T02:52:27;98184.94;;;17.95;97.42
40850;BME280;26571;41.610;25.380;2023-06-19T02:54:53;98174.31;;;17.89;97.38
40850;BME280;26571;41.610;25.380;2023-06-19T02:57:19;98188.59;;;17.94;97.79
40850;BME280;26571;41.610;25.380;2023-06-19T02:59:45;98181.75;;;17.80;97.99
40850;BME280;26571;41.610;25.380;2023-06-19T03:02:11;98162.97;;;17.75;96.80
40850;BME280;26571;41.610;25.380;2023-06-19T03:04:36;98177.59;;;17.91;96.80
40850;BME280;26571;41.610;25.380;2023-06-19T03:07:02;98193.50;;;17.97;97.29
40850;BME280;26571;41.610;25.380;2023-06-19T03:09:28;98198.41;;;18.00;97.58
40850;BME280;26571;41.610;25.380;2023-06-19T03:11:53;98188.91;;;17.86;98.64
40850;BME280;26571;41.610;25.380;2023-06-19T03:14:20;98205.78;;;17.98;98.95
40850;BME280;26571;41.610;25.380;2023-06-19T03:16:45;98184.03;;;18.01;98.88
40850;BME280;26571;41.610;25.380;2023-06-19T03:19:11;98199.88;;;18.15;98.22
40850;BME280;26571;41.610;25.380;2023-06-19T03:21:36;98155.31;;;18.03;97.08
40850;BME280;26571;41.610;25.380;2023-06-19T03:24:03;98195.31;;;18.40;97.16
40850;BME280;26571;41.610;25.380;2023-06-19T03:26:28;98098.94;;;17.88;97.16
40850;BME280;26571;41.610;25.380;2023-06-19T03:28:54;98150.28;;;18.69;97.52
40850;BME280;26571;41.610;25.380;2023-06-19T03:31:19;98183.81;;;19.48;95.96
40850;BME280;26571;41.610;25.380;2023-06-19T03:33:44;98183.41;;;20.22;90.86
40850;BME280;26571;41.610;25.380;2023-06-19T03:36:10;98136.16;;;20.62;83.18
40850;BME280;26571;41.610;25.380;2023-06-19T03:38:35;98153.91;;;21.42;76.69
40850;BME280;26571;41.610;25.380;2023-06-19T03:41:01;98191.28;;;22.38;72.88
40850;BME280;26571;41.610;25.380;2023-06-19T03:43:26;98205.09;;;22.91;68.43
40850;BME280;26571;41.610;25.380;2023-06-19T03:45:52;98187.97;;;23.51;66.13
40850;BME280;26571;41.610;25.380;2023-06-19T03:48:17;98157.06;;;23.86;64.31
40850;BME280;26571;41.610;25.380;2023-06-19T03:50:43;98156.06;;;24.44;61.55
40850;BME280;26571;41.610;25.380;2023-06-19T03:53:09;98210.22;;;25.31;59.41
40850;BME280;26571;41.610;25.380;2023-06-19T03:55:34;98194.38;;;25.96;55.92
40850;BME280;26571;41.610;25.380;2023-06-19T03:58:00;98198.50;;;26.63;52.37
40850;BME280;26571;41.610;25.380;2023-06-19T04:00:25;98175.41;;;26.96;50.85
40850;BME280;26571;41.610;25.380;2023-06-19T04:02:51;98184.16;;;27.62;49.10
40850;BME280;26571;41.610;25.380;2023-06-19T04:05:16;98175.94;;;28.06;47.28
40850;BME280;26571;41.610;25.380;2023-06-19T04:07:42;98086.22;;;27.94;46.18
40850;BME280;26571;41.610;25.380;2023-06-19T04:10:08;98173.38;;;28.87;45.08
40850;BME280;26571;41.610;25.380;2023-06-19T04:12:33;98168.81;;;29.06;43.90
40850;BME280;26571;41.610;25.380;2023-06-19T04:14:59;98136.22;;;29.11;43.05
40850;BME280;26571;41.610;25.380;2023-06-19T04:17:24;98190.19;;;29.64;43.18
40850;BME280;26571;41.610;25.380;2023-06-19T04:19:50;98191.13;;;29.87;42.90
40850;BME280;26571;41.610;25.380;2023-06-19T04:22:15;98175.28;;;29.94;42.61
40850;BME280;26571;41.610;25.380;2023-06-19T04:24:41;98185.88;;;30.09;42.20
40850;BME280;26571;41.610;25.380;2023-06-19T04:27:06;98188.38;;;30.06;42.62
40850;BME280;26571;41.610;25.380;2023-06-19T04:29:33;98185.63;;;29.92;42.44
40850;BME280;26571;41.610;25.380;2023-06-19T04:31:59;98184.16;;;29.48;43.50
40850;BME280;26571;41.610;25.380;2023-06-19T04:34:25;98198.59;;;29.44;44.18
40850;BME280;26571;41.610;25.380;2023-06-19T04:36:51;98191.94;;;29.17;44.43
40850;BME280;26571;41.610;25.380;2023-06-19T04:39:17;98199.63;;;28.67;45.69
40850;BME280;26571;41.610;25.380;2023-06-19T04:41:43;98198.91;;;28.38;46.68
40850;BME280;26571;41.610;25.380;2023-06-19T04:44:11;98180.44;;;28.16;47.28
40850;BME280;26571;41.610;25.380;2023-06-19T04:46:37;98179.75;;;27.76;48.12
40850;BME280;26571;41.610;25.380;2023-06-19T04:49:03;98197.84;;;27.80;49.57
40850;BME280;26571;41.610;25.380;2023-06-19T04:51:30;98191.22;;;27.57;48.79
40850;BME280;26571;41.610;25.380;2023-06-19T04:53:58;98185.41;;;27.40;50.18
40850;BME280;26571;41.610;25.380;2023-06-19T04:56:23;98195.50;;;27.24;50.80
40850;BME280;26571;41.610;25.380;2023-06-19T04:58:49;98176.72;;;26.99;50.84
40850;BME280;26571;41.610;25.380;2023-06-19T05:01:16;98152.91;;;26.57;51.94
40850;BME280;26571;41.610;25.380;2023-06-19T05:03:44;98170.41;;;26.69;52.87
40850;BME280;26571;41.610;25.380;2023-06-19T05:06:11;98201.16;;;26.73;53.93
40850;BME280;26571;41.610;25.380;2023-06-19T05:08:36;98203.34;;;26.71;54.17
40850;BME280;26571;41.610;25.380;2023-06-19T05:11:02;98197.44;;;26.59;53.82
40850;BME280;26571;41.610;25.380;2023-06-19T05:13:27;98197.50;;;26.34;53.99
40850;BME280;26571;41.610;25.380;2023-06-19T05:15:53;98200.22;;;26.28;54.97
40850;BME280;26571;41.610;25.380;2023-06-19T05:18:18;98210.47;;;26.37;54.50
40850;BME280;26571;41.610;25.380;2023-06-19T05:20:44;98200.19;;;26.39;54.73
40850;BME280;26571;41.610;25.380;2023-06-19T05:23:10;98210.97;;;26.39;55.25
40850;BME280;26571;41.610;25.380;2023-06-19T05:25:35;98180.84;;;26.11;55.31
40850;BME280;26571;41.610;25.380;2023-06-19T05:28:01;98216.13;;;26.30;56.32
40850;BME280;26571;41.610;25.380;2023-06-19T05:30:26;98207.84;;;26.06;56.03
40850;BME280;26571;41.610;25.380;2023-06-19T05:32:52;98211.59;;;25.90;56.98
40850;BME280;26571;41.610;25.380;2023-06-19T05:35:17;98217.81;;;25.85;57.63
40850;BME280;26571;41.610;25.380;2023-06-19T05:37:43;98217.56;;;25.82;57.76
40850;BME280;26571;41.610;25.380;2023-06-19T05:40:09;98211.88;;;25.83;59.61
40850;BME280;26571;41.610;25.380;2023-06-19T05:42:37;98189.50;;;25.62;58.93
40850;BME280;26571;41.610;25.380;2023-06-19T05:45:04;98206.78;;;25.92;57.94
40850;BME280;26571;41.610;25.380;2023-06-19T05:47:30;98205.13;;;25.75;59.24
40850;BME280;26571;41.610;25.380;2023-06-19T05:49:56;98212.69;;;26.04;58.40
40850;BME280;26571;41.610;25.380;2023-06-19T05:52:22;98195.97;;;26.07;56.61
40850;BME280;26571;41.610;25.380;2023-06-19T05:54:48;98207.78;;;26.26;57.51
40850;BME280;26571;41.610;25.380;2023-06-19T05:57:13;98164.66;;;26.11;56.02
40850;BME280;26571;41.610;25.380;2023-06-19T05:59:41;98199.63;;;26.57;56.37
40850;BME280;26571;41.610;25.380;2023-06-19T06:02:07;98187.44;;;26.65;53.90
40850;BME280;26571;41.610;25.380;2023-06-19T06:04:33;98215.94;;;26.96;54.35
40850;BME280;26571;41.610;25.380;2023-06-19T06:06:59;98208.06;;;27.00;54.27
40850;BME280;26571;41.610;25.380;2023-06-19T06:09:25;98225.94;;;26.91;53.85
40850;BME280;26571;41.610;25.380;2023-06-19T06:11:50;98213.44;;;27.10;53.68
40850;BME280;26571;41.610;25.380;2023-06-19T06:14:15;98217.34;;;27.33;53.24
40850;BME280;26571;41.610;25.380;2023-06-19T06:16:41;98159.34;;;27.20;52.66
40850;BME280;26571;41.610;25.380;2023-06-19T06:19:06;98208.75;;;27.65;52.85
40850;BME280;26571;41.610;25.380;2023-06-19T06:21:32;98207.06;;;27.74;50.86
40850;BME280;26571;41.610;25.380;2023-06-19T06:23:57;98208.31;;;27.87;52.34
40850;BME280;26571;41.610;25.380;2023-06-19T06:26:23;98208.06;;;28.13;50.58
40850;BME280;26571;41.610;25.380;2023-06-19T06:28:48;98195.44;;;28.03;49.28
40850;BME280;26571;41.610;25.380;2023-06-19T06:31:13;98205.56;;;28.21;49.11
40850;BME280;26571;41.610;25.380;2023-06-19T06:33:39;98196.78;;;28.29;50.18
40850;BME280;26571;41.610;25.380;2023-06-19T06:36:04;98190.41;;;28.20;49.62
40850;BME280;26571;41.610;25.380;2023-06-19T06:38:30;98209.16;;;28.41;51.77
40850;BME280;26571;41.610;25.380;2023-06-19T06:40:55;98203.16;;;28.44;49.92
40850;BME280;26571;41.610;25.380;2023-06-19T06:43:21;98194.22;;;28.67;49.12
40850;BME280;26571;41.610;25.380;2023-06-19T06:45:46;98115.00;;;28.32;47.08
40850;BME280;26571;41.610;25.380;2023-06-19T06:48:12;98201.91;;;28.79;46.80
40850;BME280;26571;41.610;25.380;2023-06-19T06:50:37;98194.38;;;28.76;46.20
40850;BME280;26571;41.610;25.380;2023-06-19T06:53:03;98166.16;;;28.58;45.84
40850;BME280;26571;41.610;25.380;2023-06-19T06:55:28;98179.69;;;28.58;46.64
40850;BME280;26571;41.610;25.380;2023-06-19T06:57:53;98225.22;;;28.80;47.00
40850;BME280;26571;41.610;25.380;2023-06-19T07:00:19;98200.13;;;28.93;46.76
40850;BME280;26571;41.610;25.380;2023-06-19T07:02:44;98145.41;;;28.72;46.58
40850;BME280;26571;41.610;25.380;2023-06-19T07:05:14;98172.09;;;29.03;48.04
40850;BME280;26571;41.610;25.380;2023-06-19T07:07:39;98151.63;;;28.92;48.38
40850;BME280;26571;41.610;25.380;2023-06-19T07:10:05;98198.59;;;29.44;47.48
40850;BME280;26571;41.610;25.380;2023-06-19T07:12:31;98177.06;;;29.33;45.59
40850;BME280;26571;41.610;25.380;2023-06-19T07:14:56;98201.69;;;29.18;46.87
40850;BME280;26571;41.610;25.380;2023-06-19T07:17:22;98163.31;;;29.11;47.29
40850;BME280;26571;41.610;25.380;2023-06-19T07:19:47;98198.91;;;29.42;46.28
40850;BME280;26571;41.610;25.380;2023-06-19T07:22:13;98167.72;;;29.07;45.75
40850;BME280;26571;41.610;25.380;2023-06-19T07:24:40;98210.28;;;29.06;44.92
40850;BME280;26571;41.610;25.380;2023-06-19T07:27:06;98207.94;;;29.00;45.79
40850;BME280;26571;41.610;25.380;2023-06-19T07:29:31;98161.41;;;28.69;47.82
40850;BME280;26571;41.610;25.380;2023-06-19T07:31:58;98215.78;;;29.20;47.65
40850;BME280;26571;41.610;25.380;2023-06-19T07:34:24;98205.84;;;29.48;46.46
40850;BME280;26571;41.610;25.380;2023-06-19T07:36:49;98202.91;;;29.64;45.74
40850;BME280;26571;41.610;25.380;2023-06-19T07:39:15;98207.53;;;29.63;44.06
40850;BME280;26571;41.610;25.380;2023-06-19T07:41:41;98208.72;;;29.57;45.39
40850;BME280;26571;41.610;25.380;2023-06-19T07:44:06;98156.47;;;29.32;46.50
40850;BME280;26571;41.610;25.380;2023-06-19T07:46:32;98204.88;;;29.77;45.40
40850;BME280;26571;41.610;25.380;2023-06-19T07:48:57;98194.28;;;29.94;46.80
40850;BME280;26571;41.610;25.380;2023-06-19T07:51:22;98188.94;;;29.89;43.57
40850;BME280;26571;41.610;25.380;2023-06-19T07:53:48;98202.13;;;29.96;43.04
40850;BME280;26571;41.610;25.380;2023-06-19T07:56:13;98208.84;;;29.98;44.96
40850;BME280;26571;41.610;25.380;2023-06-19T07:58:39;98159.00;;;29.94;44.20
40850;BME280;26571;41.610;25.380;2023-06-19T08:01:04;98206.22;;;30.40;45.57
40850;BME280;26571;41.610;25.380;2023-06-19T08:03:30;98205.72;;;30.37;46.25
40850;BME280;26571;41.610;25.380;2023-06-19T08:05:56;98215.19;;;30.54;44.68
40850;BME280;26571;41.610;25.380;2023-06-19T08:08:21;98206.31;;;30.62;45.19
40850;BME280;26571;41.610;25.380;2023-06-19T08:10:47;98230.00;;;30.75;42.63
40850;BME280;26571;41.610;25.380;2023-06-19T08:13:12;98196.16;;;30.40;41.52
40850;BME280;26571;41.610;25.380;2023-06-19T08:15:38;98189.84;;;30.45;40.41
40850;BME280;26571;41.610;25.380;2023-06-19T08:18:03;98204.72;;;30.47;40.25
40850;BME280;26571;41.610;25.380;2023-06-19T08:20:30;98213.56;;;30.25;42.43
40850;BME280;26571;41.610;25.380;2023-06-19T08:22:55;98203.72;;;30.29;42.06
40850;BME280;26571;41.610;25.380;2023-06-19T08:25:21;98206.94;;;30.31;42.52
40850;BME280;26571;41.610;25.380;2023-06-19T08:27:47;98224.13;;;30.41;42.10
40850;BME280;26571;41.610;25.380;2023-06-19T08:30:12;98220.81;;;30.57;43.63
40850;BME280;26571;41.610;25.380;2023-06-19T08:32:38;98218.00;;;30.49;42.61
40850;BME280;26571;41.610;25.380;2023-06-19T08:35:03;98199.78;;;30.22;41.32
40850;BME280;26571;41.610;25.380;2023-06-19T08:37:29;98214.09;;;29.95;40.95
40850;BME280;26571;41.610;25.380;2023-06-19T08:39:54;98143.47;;;29.16;41.58
40850;BME280;26571;41.610;25.380;2023-06-19T08:42:22;98216.31;;;30.06;44.35
40850;BME280;26571;41.610;25.380;2023-06-19T08:44:48;98199.66;;;30.96;40.20
40850;BME280;26571;41.610;25.380;2023-06-19T08:47:14;98208.94;;;31.89;39.35
40850;BME280;26571;41.610;25.380;2023-06-19T08:49:39;98191.47;;;32.53;39.18
40850;BME280;26571;41.610;25.380;2023-06-19T08:52:05;98171.22;;;32.93;37.70
40850;BME280;26571;41.610;25.380;2023-06-19T08:54:32;98205.25;;;33.39;34.92
40850;BME280;26571;41.610;25.380;2023-06-19T08:57:03;98201.25;;;33.63;35.70
40850;BME280;26571;41.610;25.380;2023-06-19T08:59:30;98213.41;;;33.91;33.85
40850;BME280;26571;41.610;25.380;2023-06-19T09:01:57;98204.91;;;34.02;33.55
40850;BME280;26571;41.610;25.380;2023-06-19T09:04:26;98205.06;;;34.52;35.18
40850;BME280;26571;41.610;25.380;2023-06-19T09:07:00;98198.50;;;34.74;35.09
40850;BME280;26571;41.610;25.380;2023-06-19T09:09:27;98194.81;;;34.70;33.85
40850;BME280;26571;41.610;25.380;2023-06-19T09:12:08;98190.69;;;34.64;33.61
40850;BME280;26571;41.610;25.380;2023-06-19T09:14:35;98194.38;;;34.97;33.11
40850;BME280;26571;41.610;25.380;2023-06-19T09:17:10;98173.50;;;34.84;31.53
40850;BME280;26571;41.610;25.380;2023-06-19T09:19:36;98167.38;;;34.19;31.65
40850;BME280;26571;41.610;25.380;2023-06-19T09:22:06;98195.47;;;33.56;34.47
40850;BME280;26571;41.610;25.380;2023-06-19T09:24:39;98198.69;;;33.23;36.94
40850;BME280;26571;41.610;25.380;2023-06-19T09:27:23;98149.41;;;32.36;34.18
40850;BME280;26571;41.610;25.380;2023-06-19T09:29:50;98186.22;;;32.25;34.96
40850;BME280;26571;41.610;25.380;2023-06-19T09:32:20;98194.97;;;32.13;36.53
40850;BME280;26571;41.610;25.380;2023-06-19T09:34:45;98188.75;;;31.90;35.63
40850;BME280;26571;41.610;25.380;2023-06-19T09:37:11;98197.56;;;31.65;36.07
40850;BME280;26571;41.610;25.380;2023-06-19T09:39:38;98193.72;;;31.44;37.66
40850;BME280;26571;41.610;25.380;2023-06-19T09:42:06;98178.72;;;30.96;36.84
40850;BME280;26571;41.610;25.380;2023-06-19T09:44:40;98216.41;;;30.34;37.33
40850;BME280;26571;41.610;25.380;2023-06-19T09:47:16;98192.53;;;30.17;39.72
40850;BME280;26571;41.610;25.380;2023-06-19T09:49:53;98187.31;;;30.34;40.30
40850;BME280;26571;41.610;25.380;2023-06-19T09:52:20;98165.66;;;30.57;39.11
40850;BME280;26571;41.610;25.380;2023-06-19T09:54:51;98183.34;;;30.96;39.23
40850;BME280;26571;41.610;25.380;2023-06-19T09:57:16;98185.16;;;31.00;37.90
40850;BME280;26571;41.610;25.380;2023-06-19T09:59:42;98134.44;;;30.68;37.94
40850;BME280;26571;41.610;25.380;2023-06-19T10:02:09;98154.81;;;30.84;36.49
40850;BME280;26571;41.610;25.380;2023-06-19T10:05:04;98171.78;;;30.90;37.23
40850;BME280;26571;41.610;25.380;2023-06-19T10:07:34;98139.50;;;30.88;38.73
40850;BME280;26571;41.610;25.380;2023-06-19T10:10:05;98178.53;;;30.93;38.10
40850;BME280;26571;41.610;25.380;2023-06-19T10:12:45;98178.75;;;30.69;37.49
40850;BME280;26571;41.610;25.380;2023-06-19T10:17:37;98153.19;;;30.28;38.85
40850;BME280;26571;41.610;25.380;2023-06-19T10:20:02;98170.44;;;30.24;39.32
40850;BME280;26571;41.610;25.380;2023-06-19T10:22:32;98150.31;;;30.25;38.89
40850;BME280;26571;41.610;25.380;2023-06-19T10:24:57;98100.28;;;29.98;39.79
40850;BME280;26571;41.610;25.380;2023-06-19T10:27:24;98162.06;;;30.48;39.59
40850;BME280;26571;41.610;25.380;2023-06-19T10:29:54;98159.34;;;30.34;42.46
40850;BME280;26571;41.610;25.380;2023-06-19T10:32:20;98168.50;;;30.24;41.61
40850;BME280;26571;41.610;25.380;2023-06-19T10:34:48;98165.84;;;30.05;40.80
40850;BME280;26571;41.610;25.380;2023-06-19T10:37:16;98138.56;;;29.69;40.07
40850;BME280;26571;41.610;25.380;2023-06-19T10:39:43;98183.53;;;30.03;41.71
40850;BME280;26571;41.610;25.380;2023-06-19T10:42:09;98165.31;;;29.90;40.22
40850;BME280;26571;41.610;25.380;2023-06-19T10:44:35;98167.72;;;29.91;40.25
40850;BME280;26571;41.610;25.380;2023-06-19T10:47:04;98163.78;;;29.83;40.33
40850;BME280;26571;41.610;25.380;2023-06-19T10:49:29;98168.22;;;29.79;41.43
40850;BME280;26571;41.610;25.380;2023-06-19T10:51:55;98135.13;;;29.77;42.82
40850;BME280;26571;41.610;25.380;2023-06-19T10:54:28;98162.44;;;30.00;40.49
40850;BME280;26571;41.610;25.380;2023-06-19T10:56:53;98133.22;;;29.78;39.29
40850;BME280;26571;41.610;25.380;2023-06-19T10:59:19;98159.78;;;29.81;40.12
40850;BME280;26571;41.610;25.380;2023-06-19T11:01:46;98153.66;;;29.89;40.74
40850;BME280;26571;41.610;25.380;2023-06-19T11:04:12;98148.94;;;29.95;39.56
40850;BME280;26571;41.610;25.380;2023-06-19T11:06:39;98119.16;;;29.76;38.27
40850;BME280;26571;41.610;25.380;2023-06-19T11:09:11;98156.38;;;30.03;39.53
40850;BME280;26571;41.610;25.380;2023-06-19T11:14:02;98148.94;;;30.08;42.15
40850;BME280;26571;41.610;25.380;2023-06-19T11:16:27;98138.22;;;30.31;40.66
40850;BME280;26571;41.610;25.380;2023-06-19T11:18:59;98133.28;;;30.33;40.64
40850;BME280;26571;41.610;25.380;2023-06-19T11:21:36;98071.72;;;29.59;38.02
40850;BME280;26571;41.610;25.380;2023-06-19T11:24:11;98117.22;;;29.44;39.67
40850;BME280;26571;41.610;25.380;2023-06-19T11:26:50;98155.72;;;29.46;41.14
40850;BME280;26571;41.610;25.380;2023-06-19T11:29:20;98142.41;;;29.30;40.20
40850;BME280;26571;41.610;25.380;2023-06-19T11:31:47;98157.16;;;29.24;40.87
40850;BME280;26571;41.610;25.380;2023-06-19T11:34:14;98159.56;;;29.07;42.51
40850;BME280;26571;41.610;25.380;2023-06-19T11:36:40;98145.78;;;29.22;42.60
40850;BME280;26571;41.610;25.380;2023-06-19T11:39:11;98114.06;;;29.04;42.17
40850;BME280;26571;41.610;25.380;2023-06-19T11:41:36;98093.25;;;29.18;41.50
40850;BME280;26571;41.610;25.380;2023-06-19T11:44:06;98111.00;;;29.43;40.89
40850;BME280;26571;41.610;25.380;2023-06-19T11:46:33;98137.13;;;29.72;40.53
40850;BME280;26571;41.610;25.380;2023-06-19T11:49:16;98137.22;;;29.67;38.88
40850;BME280;26571;41.610;25.380;2023-06-19T11:51:43;98141.44;;;29.59;38.10
40850;BME280;26571;41.610;25.380;2023-06-19T11:54:10;98118.16;;;29.39;38.04
40850;BME280;26571;41.610;25.380;2023-06-19T11:56:37;98120.63;;;29.54;38.96
40850;BME280;26571;41.610;25.380;2023-06-19T11:59:03;98112.25;;;29.51;38.59
40850;BME280;26571;41.610;25.380;2023-06-19T12:01:30;98108.00;;;29.45;40.54
40850;BME280;26571;41.610;25.380;2023-06-19T12:03:56;98099.34;;;29.43;38.63
40850;BME280;26571;41.610;25.380;2023-06-19T12:06:21;98112.50;;;29.68;39.79
40850;BME280;26571;41.610;25.380;2023-06-19T12:08:47;98122.75;;;29.71;38.44
40850;BME280;26571;41.610;25.380;2023-06-19T12:11:12;98114.63;;;29.71;39.10
40850;BME280;26571;41.610;25.380;2023-06-19T12:13:40;98079.53;;;29.61;41.52
40850;BME280;26571;41.610;25.380;2023-06-19T12:16:06;98112.84;;;29.94;41.18
40850;BME280;26571;41.610;25.380;2023-06-19T12:18:31;98083.06;;;29.61;40.98
40850;BME280;26571;41.610;25.380;2023-06-19T12:20:56;98097.56;;;29.52;39.64
40850;BME280;26571;41.610;25.380;2023-06-19T12:23:22;98093.75;;;29.53;39.23
40850;BME280;26571;41.610;25.380;2023-06-19T12:25:47;98111.44;;;29.50;38.80
40850;BME280;26571;41.610;25.380;2023-06-19T12:28:13;98109.22;;;29.52;39.95
40850;BME280;26571;41.610;25.380;2023-06-19T12:30:43;98089.69;;;29.36;44.61
40850;BME280;26571;41.610;25.380;2023-06-19T12:33:09;98105.16;;;29.36;45.77
40850;BME280;26571;41.610;25.380;2023-06-19T12:35:35;98090.13;;;29.11;44.50
40850;BME280;26571;41.610;25.380;2023-06-19T12:38:01;98096.72;;;29.05;44.79
40850;BME280;26571;41.610;25.380;2023-06-19T12:40:26;98081.44;;;28.95;44.43
40850;BME280;26571;41.610;25.380;2023-06-19T12:42:52;98055.34;;;28.80;44.32
40850;BME280;26571;41.610;25.380;2023-06-19T12:45:17;98091.31;;;29.05;44.62
40850;BME280;26571;41.610;25.380;2023-06-19T12:47:42;98091.88;;;29.02;43.48
40850;BME280;26571;41.610;25.380;2023-06-19T12:50:08;98085.25;;;28.94;42.42
40850;BME280;26571;41.610;25.380;2023-06-19T12:52:34;98031.41;;;28.50;42.45